Terminal Aerodrome Forecast
Issued by NWS

Home | Current Version | Previous Version | Text Only | Print | Product List | Glossary On
Versions: 1 2 3 4 5 6 7 8 9 10 11 12 13 14 15 16 17 18
853
FTUS42 KGSP 131720
TAFGMU
TAF
KGMU 131720Z 1318/1418 35008KT P6SM SKC
      TEMPO 1318/1322 02012G20KT
     FM132300 01008KT P6SM SKC
     FM140900 06004KT P6SM SCT100
     FM141000 06004KT P6SM BKN090
     FM141400 09007KT P6SM BKN080=

USA.gov is the U.S. government's official web portal to all federal, state and local government web resources and services.